sensor_id;sensor_type;location;lat;lon;timestamp;temperature;humidity
59660;DHT22;45534;52.690;6.268;2022-08-25T00:01:37;20.60;99.90
59660;DHT22;45534;52.690;6.268;2022-08-25T00:04:05;20.60;99.90
59660;DHT22;45534;52.690;6.268;2022-08-25T00:06:31;20.50;99.90
59660;DHT22;45534;52.690;6.268;2022-08-25T00:08:57;20.40;99.90
59660;DHT22;45534;52.690;6.268;2022-08-25T00:11:26;20.50;99.90
59660;DHT22;45534;52.690;6.268;2022-08-25T00:13:55;20.40;99.90
59660;DHT22;45534;52.690;6.268;2022-08-25T00:16:22;20.30;99.90
59660;DHT22;45534;52.690;6.268;2022-08-25T00:18:52;20.30;99.90
59660;DHT22;45534;52.690;6.268;2022-08-25T00:21:18;20.30;99.90
59660;DHT22;45534;52.690;6.268;2022-08-25T00:23:44;20.20;99.90
59660;DHT22;45534;52.690;6.268;2022-08-25T00:26:11;20.20;99.90
59660;DHT22;45534;52.690;6.268;2022-08-25T00:28:37;20.10;99.90
59660;DHT22;45534;52.690;6.268;2022-08-25T00:31:05;20.10;99.90
59660;DHT22;45534;52.690;6.268;2022-08-25T00:33:32;20.10;99.90
59660;DHT22;45534;52.690;6.268;2022-08-25T00:35:58;20.10;99.90
59660;DHT22;45534;52.690;6.268;2022-08-25T00:38:25;20.10;99.90
59660;DHT22;45534;52.690;6.268;2022-08-25T00:40:51;20.10;99.90
59660;DHT22;45534;52.690;6.268;2022-08-25T00:43:57;20.10;99.90
59660;DHT22;45534;52.690;6.268;2022-08-25T00:46:44;20.20;99.90
59660;DHT22;45534;52.690;6.268;2022-08-25T00:49:14;20.20;99.90
59660;DHT22;45534;52.690;6.268;2022-08-25T00:51:46;20.20;99.90
59660;DHT22;45534;52.690;6.268;2022-08-25T00:54:21;20.20;99.90
59660;DHT22;45534;52.690;6.268;2022-08-25T00:56:49;20.20;99.90
59660;DHT22;45534;52.690;6.268;2022-08-25T00:59:19;20.20;99.90
59660;DHT22;45534;52.690;6.268;2022-08-25T01:01:46;20.20;99.90
59660;DHT22;45534;52.690;6.268;2022-08-25T01:04:12;20.30;99.90
59660;DHT22;45534;52.690;6.268;2022-08-25T01:06:40;20.20;99.90
59660;DHT22;45534;52.690;6.268;2022-08-25T01:09:08;20.20;99.90
59660;DHT22;45534;52.690;6.268;2022-08-25T01:11:34;20.20;99.90
59660;DHT22;45534;52.690;6.268;2022-08-25T01:14:00;20.20;99.90
59660;DHT22;45534;52.690;6.268;2022-08-25T01:16:34;20.10;99.90
59660;DHT22;45534;52.690;6.268;2022-08-25T01:19:01;20.10;99.90
59660;DHT22;45534;52.690;6.268;2022-08-25T01:21:28;20.10;99.90
59660;DHT22;45534;52.690;6.268;2022-08-25T01:23:57;20.00;99.90
59660;DHT22;45534;52.690;6.268;2022-08-25T01:26:30;20.00;99.90
59660;DHT22;45534;52.690;6.268;2022-08-25T01:28:58;20.00;99.90
59660;DHT22;45534;52.690;6.268;2022-08-25T01:31:44;19.90;99.90
59660;DHT22;45534;52.690;6.268;2022-08-25T01:34:10;19.90;99.90
59660;DHT22;45534;52.690;6.268;2022-08-25T01:36:38;19.90;99.90
59660;DHT22;45534;52.690;6.268;2022-08-25T01:39:05;19.90;99.90
59660;DHT22;45534;52.690;6.268;2022-08-25T01:41:48;19.90;99.90
59660;DHT22;45534;52.690;6.268;2022-08-25T01:44:16;19.90;99.90
59660;DHT22;45534;52.690;6.268;2022-08-25T01:46:41;19.90;99.90
59660;DHT22;45534;52.690;6.268;2022-08-25T01:49:07;19.90;99.90
59660;DHT22;45534;52.690;6.268;2022-08-25T01:51:42;19.90;99.90
59660;DHT22;45534;52.690;6.268;2022-08-25T01:54:08;19.90;99.90
59660;DHT22;45534;52.690;6.268;2022-08-25T01:56:35;19.90;99.90
59660;DHT22;45534;52.690;6.268;2022-08-25T01:59:00;19.80;99.90
59660;DHT22;45534;52.690;6.268;2022-08-25T02:01:26;19.80;99.90
59660;DHT22;45534;52.690;6.268;2022-08-25T02:03:54;19.80;99.90
59660;DHT22;45534;52.690;6.268;2022-08-25T02:06:26;19.80;99.90
59660;DHT22;45534;52.690;6.268;2022-08-25T02:08:55;19.80;99.90
59660;DHT22;45534;52.690;6.268;2022-08-25T02:11:23;19.80;99.90
59660;DHT22;45534;52.690;6.268;2022-08-25T02:13:49;19.80;99.90
59660;DHT22;45534;52.690;6.268;2022-08-25T02:16:23;19.70;99.90
59660;DHT22;45534;52.690;6.268;2022-08-25T02:18:50;19.70;99.90
59660;DHT22;45534;52.690;6.268;2022-08-25T02:21:16;19.70;99.90
59660;DHT22;45534;52.690;6.268;2022-08-25T02:23:42;19.70;99.90
59660;DHT22;45534;52.690;6.268;2022-08-25T02:26:08;19.70;99.90
59660;DHT22;45534;52.690;6.268;2022-08-25T02:28:35;19.70;99.90
59660;DHT22;45534;52.690;6.268;2022-08-25T02:31:05;19.70;99.90
59660;DHT22;45534;52.690;6.268;2022-08-25T02:33:31;19.60;99.90
59660;DHT22;45534;52.690;6.268;2022-08-25T02:36:00;19.60;99.90
59660;DHT22;45534;52.690;6.268;2022-08-25T02:38:26;19.60;99.90
59660;DHT22;45534;52.690;6.268;2022-08-25T02:40:54;19.50;99.90
59660;DHT22;45534;52.690;6.268;2022-08-25T02:43:24;19.50;99.90
59660;DHT22;45534;52.690;6.268;2022-08-25T02:45:51;19.50;99.90
59660;DHT22;45534;52.690;6.268;2022-08-25T02:48:16;19.40;99.90
59660;DHT22;45534;52.690;6.268;2022-08-25T02:50:46;19.40;99.90
59660;DHT22;45534;52.690;6.268;2022-08-25T02:53:13;19.30;99.90
59660;DHT22;45534;52.690;6.268;2022-08-25T02:55:39;19.30;99.90
59660;DHT22;45534;52.690;6.268;2022-08-25T02:58:05;19.30;99.90
59660;DHT22;45534;52.690;6.268;2022-08-25T03:00:30;19.30;99.90
59660;DHT22;45534;52.690;6.268;2022-08-25T03:02:56;19.30;99.90
59660;DHT22;45534;52.690;6.268;2022-08-25T03:05:22;19.30;99.90
59660;DHT22;45534;52.690;6.268;2022-08-25T03:07:48;19.30;99.90
59660;DHT22;45534;52.690;6.268;2022-08-25T03:10:16;19.30;99.90
59660;DHT22;45534;52.690;6.268;2022-08-25T03:12:43;19.20;99.90
59660;DHT22;45534;52.690;6.268;2022-08-25T03:15:12;19.20;99.90
59660;DHT22;45534;52.690;6.268;2022-08-25T03:17:39;19.20;99.90
59660;DHT22;45534;52.690;6.268;2022-08-25T03:20:06;19.20;99.90
59660;DHT22;45534;52.690;6.268;2022-08-25T03:22:32;19.10;99.90
59660;DHT22;45534;52.690;6.268;2022-08-25T03:24:58;19.10;99.90
59660;DHT22;45534;52.690;6.268;2022-08-25T03:27:42;19.10;99.90
59660;DHT22;45534;52.690;6.268;2022-08-25T03:30:08;19.10;99.90
59660;DHT22;45534;52.690;6.268;2022-08-25T03:32:34;19.10;99.90
59660;DHT22;45534;52.690;6.268;2022-08-25T03:35:00;19.10;99.90
59660;DHT22;45534;52.690;6.268;2022-08-25T03:37:26;19.10;99.90
59660;DHT22;45534;52.690;6.268;2022-08-25T03:39:52;19.10;99.90
59660;DHT22;45534;52.690;6.268;2022-08-25T03:42:18;19.10;99.90
59660;DHT22;45534;52.690;6.268;2022-08-25T03:44:44;19.10;99.90
59660;DHT22;45534;52.690;6.268;2022-08-25T03:47:10;19.10;99.90
59660;DHT22;45534;52.690;6.268;2022-08-25T03:49:35;19.00;99.90
59660;DHT22;45534;52.690;6.268;2022-08-25T03:52:01;19.00;99.90
59660;DHT22;45534;52.690;6.268;2022-08-25T03:54:27;19.00;99.90
59660;DHT22;45534;52.690;6.268;2022-08-25T03:56:53;19.00;99.90
59660;DHT22;45534;52.690;6.268;2022-08-25T03:59:20;19.00;99.90
59660;DHT22;45534;52.690;6.268;2022-08-25T04:01:46;18.90;99.90
59660;DHT22;45534;52.690;6.268;2022-08-25T04:04:14;18.90;99.90
59660;DHT22;45534;52.690;6.268;2022-08-25T04:06:41;18.90;99.90
59660;DHT22;45534;52.690;6.268;2022-08-25T04:09:08;18.90;99.90
59660;DHT22;45534;52.690;6.268;2022-08-25T04:11:33;18.80;99.90
59660;DHT22;45534;52.690;6.268;2022-08-25T04:13:59;18.80;99.90
59660;DHT22;45534;52.690;6.268;2022-08-25T04:16:29;18.80;99.90
59660;DHT22;45534;52.690;6.268;2022-08-25T04:18:57;18.80;99.90
59660;DHT22;45534;52.690;6.268;2022-08-25T04:21:23;18.80;99.90
59660;DHT22;45534;52.690;6.268;2022-08-25T04:23:52;18.80;99.90
59660;DHT22;45534;52.690;6.268;2022-08-25T04:26:22;18.80;99.90
59660;DHT22;45534;52.690;6.268;2022-08-25T04:28:49;18.80;99.90
59660;DHT22;45534;52.690;6.268;2022-08-25T04:31:16;18.90;99.90
59660;DHT22;45534;52.690;6.268;2022-08-25T04:33:42;18.80;99.90
59660;DHT22;45534;52.690;6.268;2022-08-25T04:36:09;18.80;99.90
59660;DHT22;45534;52.690;6.268;2022-08-25T04:38:40;18.80;99.90
59660;DHT22;45534;52.690;6.268;2022-08-25T04:41:07;18.80;99.90
59660;DHT22;45534;52.690;6.268;2022-08-25T04:43:34;18.70;99.90
59660;DHT22;45534;52.690;6.268;2022-08-25T04:46:05;18.70;99.90
59660;DHT22;45534;52.690;6.268;2022-08-25T04:48:32;18.70;99.90
59660;DHT22;45534;52.690;6.268;2022-08-25T04:50:57;18.60;99.90
59660;DHT22;45534;52.690;6.268;2022-08-25T04:53:23;18.60;99.90
59660;DHT22;45534;52.690;6.268;2022-08-25T04:55:49;18.50;99.90
59660;DHT22;45534;52.690;6.268;2022-08-25T04:58:15;18.50;99.90
59660;DHT22;45534;52.690;6.268;2022-08-25T05:00:42;18.50;99.90
59660;DHT22;45534;52.690;6.268;2022-08-25T05:03:08;18.50;99.90
59660;DHT22;45534;52.690;6.268;2022-08-25T05:05:37;18.60;99.90
59660;DHT22;45534;52.690;6.268;2022-08-25T05:08:04;18.60;99.90
59660;DHT22;45534;52.690;6.268;2022-08-25T05:10:37;18.60;99.90
59660;DHT22;45534;52.690;6.268;2022-08-25T05:13:03;18.60;99.90
59660;DHT22;45534;52.690;6.268;2022-08-25T05:15:28;18.60;99.90
59660;DHT22;45534;52.690;6.268;2022-08-25T05:18:13;18.60;99.90
59660;DHT22;45534;52.690;6.268;2022-08-25T05:20:38;18.70;99.90
59660;DHT22;45534;52.690;6.268;2022-08-25T05:23:04;18.70;99.90
59660;DHT22;45534;52.690;6.268;2022-08-25T05:25:31;18.60;99.90
59660;DHT22;45534;52.690;6.268;2022-08-25T05:27:57;18.70;99.90
59660;DHT22;45534;52.690;6.268;2022-08-25T05:30:22;18.60;99.90
59660;DHT22;45534;52.690;6.268;2022-08-25T05:32:48;18.70;99.90
59660;DHT22;45534;52.690;6.268;2022-08-25T05:35:14;18.70;99.90
59660;DHT22;45534;52.690;6.268;2022-08-25T05:37:41;18.80;99.90
59660;DHT22;45534;52.690;6.268;2022-08-25T05:40:07;18.80;99.90
59660;DHT22;45534;52.690;6.268;2022-08-25T05:42:33;18.80;99.90
59660;DHT22;45534;52.690;6.268;2022-08-25T05:45:00;18.80;99.90
59660;DHT22;45534;52.690;6.268;2022-08-25T05:47:26;18.90;99.90
59660;DHT22;45534;52.690;6.268;2022-08-25T05:49:51;19.00;99.90
59660;DHT22;45534;52.690;6.268;2022-08-25T05:52:17;19.00;99.90
59660;DHT22;45534;52.690;6.268;2022-08-25T05:54:43;19.00;99.90
59660;DHT22;45534;52.690;6.268;2022-08-25T05:57:08;19.00;99.90
59660;DHT22;45534;52.690;6.268;2022-08-25T05:59:34;19.10;99.90
59660;DHT22;45534;52.690;6.268;2022-08-25T06:02:00;19.10;99.90
59660;DHT22;45534;52.690;6.268;2022-08-25T06:04:44;19.10;99.90
59660;DHT22;45534;52.690;6.268;2022-08-25T06:07:10;19.20;99.90
59660;DHT22;45534;52.690;6.268;2022-08-25T06:09:37;19.20;99.90
59660;DHT22;45534;52.690;6.268;2022-08-25T06:12:04;19.30;99.90
59660;DHT22;45534;52.690;6.268;2022-08-25T06:14:30;19.30;99.90
59660;DHT22;45534;52.690;6.268;2022-08-25T06:16:55;19.40;99.90
59660;DHT22;45534;52.690;6.268;2022-08-25T06:19:22;19.50;99.90
59660;DHT22;45534;52.690;6.268;2022-08-25T06:21:48;19.50;99.90
59660;DHT22;45534;52.690;6.268;2022-08-25T06:24:13;19.50;99.90
59660;DHT22;45534;52.690;6.268;2022-08-25T06:26:39;19.50;99.90
59660;DHT22;45534;52.690;6.268;2022-08-25T06:29:05;19.60;99.90
59660;DHT22;45534;52.690;6.268;2022-08-25T06:31:30;19.60;99.90
59660;DHT22;45534;52.690;6.268;2022-08-25T06:33:56;19.70;99.90
59660;DHT22;45534;52.690;6.268;2022-08-25T06:36:23;19.70;99.90
59660;DHT22;45534;52.690;6.268;2022-08-25T06:38:48;19.80;99.90
59660;DHT22;45534;52.690;6.268;2022-08-25T06:41:14;19.80;99.90
59660;DHT22;45534;52.690;6.268;2022-08-25T06:43:41;19.90;99.90
59660;DHT22;45534;52.690;6.268;2022-08-25T06:46:09;19.90;99.90
59660;DHT22;45534;52.690;6.268;2022-08-25T06:48:35;20.00;99.90
59660;DHT22;45534;52.690;6.268;2022-08-25T06:51:08;20.10;99.90
59660;DHT22;45534;52.690;6.268;2022-08-25T06:53:34;20.30;99.90
59660;DHT22;45534;52.690;6.268;2022-08-25T06:56:00;20.40;99.90
59660;DHT22;45534;52.690;6.268;2022-08-25T06:58:26;20.50;99.90
59660;DHT22;45534;52.690;6.268;2022-08-25T07:00:52;20.60;99.90
59660;DHT22;45534;52.690;6.268;2022-08-25T07:03:18;20.70;99.90
59660;DHT22;45534;52.690;6.268;2022-08-25T07:05:54;20.80;99.90
59660;DHT22;45534;52.690;6.268;2022-08-25T07:08:21;21.00;99.90
59660;DHT22;45534;52.690;6.268;2022-08-25T07:10:48;21.10;99.90
59660;DHT22;45534;52.690;6.268;2022-08-25T07:13:14;21.20;99.90
59660;DHT22;45534;52.690;6.268;2022-08-25T07:15:41;21.30;99.90
59660;DHT22;45534;52.690;6.268;2022-08-25T07:18:08;21.40;99.90
59660;DHT22;45534;52.690;6.268;2022-08-25T07:20:36;21.60;99.90
59660;DHT22;45534;52.690;6.268;2022-08-25T07:23:02;21.70;99.90
59660;DHT22;45534;52.690;6.268;2022-08-25T07:25:28;21.80;99.90
59660;DHT22;45534;52.690;6.268;2022-08-25T07:27:54;21.90;99.90
59660;DHT22;45534;52.690;6.268;2022-08-25T07:30:19;22.00;99.90
59660;DHT22;45534;52.690;6.268;2022-08-25T07:32:45;22.20;99.90
59660;DHT22;45534;52.690;6.268;2022-08-25T07:35:11;22.30;99.90
59660;DHT22;45534;52.690;6.268;2022-08-25T07:37:44;22.40;99.90
59660;DHT22;45534;52.690;6.268;2022-08-25T07:40:14;22.40;99.90
59660;DHT22;45534;52.690;6.268;2022-08-25T07:42:41;22.50;99.90
59660;DHT22;45534;52.690;6.268;2022-08-25T07:45:07;22.60;99.90
59660;DHT22;45534;52.690;6.268;2022-08-25T07:47:34;22.60;99.90
59660;DHT22;45534;52.690;6.268;2022-08-25T07:50:00;22.70;99.90
59660;DHT22;45534;52.690;6.268;2022-08-25T07:52:26;22.80;99.90
59660;DHT22;45534;52.690;6.268;2022-08-25T07:54:52;22.80;99.90
59660;DHT22;45534;52.690;6.268;2022-08-25T07:57:19;22.90;99.90
59660;DHT22;45534;52.690;6.268;2022-08-25T07:59:46;23.00;99.90
59660;DHT22;45534;52.690;6.268;2022-08-25T08:02:12;23.10;99.90
59660;DHT22;45534;52.690;6.268;2022-08-25T08:04:38;23.20;99.90
59660;DHT22;45534;52.690;6.268;2022-08-25T08:07:04;23.30;99.90
59660;DHT22;45534;52.690;6.268;2022-08-25T08:09:31;23.40;99.90
59660;DHT22;45534;52.690;6.268;2022-08-25T08:11:57;23.50;99.90
59660;DHT22;45534;52.690;6.268;2022-08-25T08:14:23;23.60;99.90
59660;DHT22;45534;52.690;6.268;2022-08-25T08:16:49;23.70;99.90
59660;DHT22;45534;52.690;6.268;2022-08-25T08:19:15;23.80;99.90
59660;DHT22;45534;52.690;6.268;2022-08-25T08:21:41;23.80;99.90
59660;DHT22;45534;52.690;6.268;2022-08-25T08:24:08;23.90;99.90
59660;DHT22;45534;52.690;6.268;2022-08-25T08:26:33;24.00;99.90
59660;DHT22;45534;52.690;6.268;2022-08-25T08:28:59;24.10;99.90
59660;DHT22;45534;52.690;6.268;2022-08-25T08:31:26;24.10;99.90
59660;DHT22;45534;52.690;6.268;2022-08-25T08:33:53;24.20;99.90
59660;DHT22;45534;52.690;6.268;2022-08-25T08:36:21;24.30;99.90
59660;DHT22;45534;52.690;6.268;2022-08-25T08:38:47;24.40;99.90
59660;DHT22;45534;52.690;6.268;2022-08-25T08:47:39;24.80;99.90
59660;DHT22;45534;52.690;6.268;2022-08-25T08:55:37;25.20;99.90
59660;DHT22;45534;52.690;6.268;2022-08-25T08:58:26;25.30;99.90
59660;DHT22;45534;52.690;6.268;2022-08-25T09:00:55;25.30;99.90
59660;DHT22;45534;52.690;6.268;2022-08-25T09:03:36;25.50;99.60
59660;DHT22;45534;52.690;6.268;2022-08-25T09:09:15;25.70;99.10
59660;DHT22;45534;52.690;6.268;2022-08-25T09:14:36;26.00;97.80
59660;DHT22;45534;52.690;6.268;2022-08-25T09:19:52;26.50;96.70
59660;DHT22;45534;52.690;6.268;2022-08-25T09:25:35;26.70;96.00
59660;DHT22;45534;52.690;6.268;2022-08-25T09:31:02;26.90;94.30
59660;DHT22;45534;52.690;6.268;2022-08-25T09:33:32;27.00;94.30
59660;DHT22;45534;52.690;6.268;2022-08-25T09:36:02;27.20;94.30
59660;DHT22;45534;52.690;6.268;2022-08-25T09:38:28;27.40;93.70
59660;DHT22;45534;52.690;6.268;2022-08-25T09:40:59;27.60;92.70
59660;DHT22;45534;52.690;6.268;2022-08-25T09:48:43;28.00;89.30
59660;DHT22;45534;52.690;6.268;2022-08-25T09:51:30;28.10;90.40
59660;DHT22;45534;52.690;6.268;2022-08-25T09:56:29;28.30;84.10
59660;DHT22;45534;52.690;6.268;2022-08-25T09:59:22;28.50;83.20
59660;DHT22;45534;52.690;6.268;2022-08-25T10:01:52;28.60;83.60
59660;DHT22;45534;52.690;6.268;2022-08-25T10:04:45;28.80;76.30
59660;DHT22;45534;52.690;6.268;2022-08-25T10:09:57;28.80;71.90
59660;DHT22;45534;52.690;6.268;2022-08-25T10:12:34;28.90;70.30
59660;DHT22;45534;52.690;6.268;2022-08-25T10:15:26;29.00;67.10
59660;DHT22;45534;52.690;6.268;2022-08-25T10:17:52;29.10;66.40
59660;DHT22;45534;52.690;6.268;2022-08-25T10:20:22;29.20;66.20
59660;DHT22;45534;52.690;6.268;2022-08-25T10:22:49;29.30;64.90
59660;DHT22;45534;52.690;6.268;2022-08-25T10:25:27;29.40;65.60
59660;DHT22;45534;52.690;6.268;2022-08-25T10:28:47;29.60;62.00
59660;DHT22;45534;52.690;6.268;2022-08-25T10:36:41;29.80;60.00
59660;DHT22;45534;52.690;6.268;2022-08-25T10:39:24;29.90;60.60
59660;DHT22;45534;52.690;6.268;2022-08-25T10:42:09;30.10;58.30
59660;DHT22;45534;52.690;6.268;2022-08-25T10:56:34;30.80;56.70
59660;DHT22;45534;52.690;6.268;2022-08-25T11:04:58;31.30;54.40
59660;DHT22;45534;52.690;6.268;2022-08-25T11:07:50;31.50;54.20
59660;DHT22;45534;52.690;6.268;2022-08-25T11:16:11;32.00;53.10
59660;DHT22;45534;52.690;6.268;2022-08-25T11:18:55;32.10;51.10
59660;DHT22;45534;52.690;6.268;2022-08-25T11:26:50;32.70;51.60
59660;DHT22;45534;52.690;6.268;2022-08-25T11:29:21;32.80;50.20
59660;DHT22;45534;52.690;6.268;2022-08-25T11:31:51;32.80;51.10
59660;DHT22;45534;52.690;6.268;2022-08-25T11:34:21;33.00;49.10
59660;DHT22;45534;52.690;6.268;2022-08-25T11:37:04;33.20;50.10
59660;DHT22;45534;52.690;6.268;2022-08-25T11:51:04;33.40;41.80
59660;DHT22;45534;52.690;6.268;2022-08-25T11:53:41;33.40;45.70
59660;DHT22;45534;52.690;6.268;2022-08-25T11:58:54;33.40;46.50
59660;DHT22;45534;52.690;6.268;2022-08-25T12:04:14;33.40;46.00
59660;DHT22;45534;52.690;6.268;2022-08-25T12:15:20;34.10;45.40
59660;DHT22;45534;52.690;6.268;2022-08-25T12:18:39;34.00;44.20
59660;DHT22;45534;52.690;6.268;2022-08-25T12:26:03;33.80;44.50
59660;DHT22;45534;52.690;6.268;2022-08-25T12:28:39;34.00;43.10
59660;DHT22;45534;52.690;6.268;2022-08-25T12:36:33;34.00;43.60
59660;DHT22;45534;52.690;6.268;2022-08-25T12:39:20;34.10;42.90
59660;DHT22;45534;52.690;6.268;2022-08-25T12:47:52;34.90;38.60
59660;DHT22;45534;52.690;6.268;2022-08-25T12:50:38;35.00;42.00
59660;DHT22;45534;52.690;6.268;2022-08-25T12:53:10;35.10;42.00
59660;DHT22;45534;52.690;6.268;2022-08-25T12:55:40;34.90;42.70
59660;DHT22;45534;52.690;6.268;2022-08-25T12:58:10;34.80;41.40
59660;DHT22;45534;52.690;6.268;2022-08-25T13:01:00;34.80;41.20
59660;DHT22;45534;52.690;6.268;2022-08-25T13:03:59;34.90;42.30
59660;DHT22;45534;52.690;6.268;2022-08-25T13:11:29;35.00;41.80
59660;DHT22;45534;52.690;6.268;2022-08-25T13:14:00;35.30;40.50
59660;DHT22;45534;52.690;6.268;2022-08-25T13:16:28;35.20;39.10
59660;DHT22;45534;52.690;6.268;2022-08-25T13:18:55;35.30;38.60
59660;DHT22;45534;52.690;6.268;2022-08-25T13:21:39;35.40;38.40
59660;DHT22;45534;52.690;6.268;2022-08-25T13:24:10;35.50;38.10
59660;DHT22;45534;52.690;6.268;2022-08-25T13:26:40;35.80;38.20
59660;DHT22;45534;52.690;6.268;2022-08-25T13:31:34;35.90;38.70
59660;DHT22;45534;52.690;6.268;2022-08-25T13:34:07;36.10;39.30
59660;DHT22;45534;52.690;6.268;2022-08-25T13:36:42;36.20;39.10
59660;DHT22;45534;52.690;6.268;2022-08-25T13:39:30;36.00;37.20
59660;DHT22;45534;52.690;6.268;2022-08-25T13:41:57;36.10;38.50
59660;DHT22;45534;52.690;6.268;2022-08-25T13:44:30;36.40;37.60
59660;DHT22;45534;52.690;6.268;2022-08-25T13:47:12;36.80;37.70
59660;DHT22;45534;52.690;6.268;2022-08-25T13:49:40;37.30;38.10
59660;DHT22;45534;52.690;6.268;2022-08-25T13:52:07;37.40;39.60
59660;DHT22;45534;52.690;6.268;2022-08-25T13:54:40;37.50;37.10
59660;DHT22;45534;52.690;6.268;2022-08-25T13:57:24;37.70;37.10
59660;DHT22;45534;52.690;6.268;2022-08-25T14:00:07;37.60;35.10
59660;DHT22;45534;52.690;6.268;2022-08-25T14:05:08;37.40;37.60
59660;DHT22;45534;52.690;6.268;2022-08-25T14:07:35;37.50;37.30
59660;DHT22;45534;52.690;6.268;2022-08-25T14:15:27;37.60;37.20
59660;DHT22;45534;52.690;6.268;2022-08-25T14:18:07;37.50;35.60
59660;DHT22;45534;52.690;6.268;2022-08-25T14:20:35;37.40;36.00
59660;DHT22;45534;52.690;6.268;2022-08-25T14:23:15;37.30;36.20
59660;DHT22;45534;52.690;6.268;2022-08-25T14:25:41;37.50;36.90
59660;DHT22;45534;52.690;6.268;2022-08-25T14:28:11;37.60;35.80
59660;DHT22;45534;52.690;6.268;2022-08-25T14:30:47;37.50;36.30
59660;DHT22;45534;52.690;6.268;2022-08-25T14:33:15;37.70;36.30
59660;DHT22;45534;52.690;6.268;2022-08-25T14:35:45;37.50;36.70
59660;DHT22;45534;52.690;6.268;2022-08-25T14:38:12;37.50;35.90
59660;DHT22;45534;52.690;6.268;2022-08-25T14:40:38;37.70;35.90
59660;DHT22;45534;52.690;6.268;2022-08-25T14:43:05;37.80;36.30
59660;DHT22;45534;52.690;6.268;2022-08-25T14:45:31;37.80;37.10
59660;DHT22;45534;52.690;6.268;2022-08-25T14:48:04;38.20;35.70
59660;DHT22;45534;52.690;6.268;2022-08-25T14:50:31;38.40;35.40
59660;DHT22;45534;52.690;6.268;2022-08-25T14:52:57;38.60;35.60
59660;DHT22;45534;52.690;6.268;2022-08-25T14:55:26;38.80;35.00
59660;DHT22;45534;52.690;6.268;2022-08-25T14:57:52;39.00;35.20
59660;DHT22;45534;52.690;6.268;2022-08-25T15:00:18;39.00;34.20
59660;DHT22;45534;52.690;6.268;2022-08-25T15:02:45;39.00;34.90
59660;DHT22;45534;52.690;6.268;2022-08-25T15:05:15;38.80;34.90
59660;DHT22;45534;52.690;6.268;2022-08-25T15:07:41;38.40;35.40
59660;DHT22;45534;52.690;6.268;2022-08-25T15:10:25;38.10;35.40
59660;DHT22;45534;52.690;6.268;2022-08-25T15:12:51;37.90;35.10
59660;DHT22;45534;52.690;6.268;2022-08-25T15:15:17;37.70;35.10
59660;DHT22;45534;52.690;6.268;2022-08-25T15:17:44;37.60;35.20
59660;DHT22;45534;52.690;6.268;2022-08-25T15:20:12;37.60;35.10
59660;DHT22;45534;52.690;6.268;2022-08-25T15:22:38;37.80;35.30
59660;DHT22;45534;52.690;6.268;2022-08-25T15:25:05;37.60;35.60
59660;DHT22;45534;52.690;6.268;2022-08-25T15:27:31;37.50;36.00
59660;DHT22;45534;52.690;6.268;2022-08-25T15:29:57;37.60;36.60
59660;DHT22;45534;52.690;6.268;2022-08-25T15:32:25;37.80;36.00
59660;DHT22;45534;52.690;6.268;2022-08-25T15:34:51;37.60;35.90
59660;DHT22;45534;52.690;6.268;2022-08-25T15:37:16;37.40;35.80
59660;DHT22;45534;52.690;6.268;2022-08-25T15:39:44;37.40;36.00
59660;DHT22;45534;52.690;6.268;2022-08-25T15:42:10;37.30;36.30
59660;DHT22;45534;52.690;6.268;2022-08-25T15:44:37;37.10;36.50
59660;DHT22;45534;52.690;6.268;2022-08-25T15:47:03;36.80;37.20
59660;DHT22;45534;52.690;6.268;2022-08-25T15:49:29;36.60;37.40
59660;DHT22;45534;52.690;6.268;2022-08-25T15:51:55;36.30;37.30
59660;DHT22;45534;52.690;6.268;2022-08-25T15:54:22;36.10;37.60
59660;DHT22;45534;52.690;6.268;2022-08-25T15:56:48;35.90;37.90
59660;DHT22;45534;52.690;6.268;2022-08-25T15:59:14;35.80;38.40
59660;DHT22;45534;52.690;6.268;2022-08-25T16:01:40;35.80;38.00
59660;DHT22;45534;52.690;6.268;2022-08-25T16:04:06;35.60;37.30
59660;DHT22;45534;52.690;6.268;2022-08-25T16:06:32;35.50;36.60
59660;DHT22;45534;52.690;6.268;2022-08-25T16:08:59;35.60;36.60
59660;DHT22;45534;52.690;6.268;2022-08-25T16:11:27;35.40;36.60
59660;DHT22;45534;52.690;6.268;2022-08-25T16:13:55;35.00;37.00
59660;DHT22;45534;52.690;6.268;2022-08-25T16:16:23;34.80;37.50
59660;DHT22;45534;52.690;6.268;2022-08-25T16:18:51;34.60;38.00
59660;DHT22;45534;52.690;6.268;2022-08-25T16:21:20;34.50;38.20
59660;DHT22;45534;52.690;6.268;2022-08-25T16:23:48;34.30;38.70
59660;DHT22;45534;52.690;6.268;2022-08-25T16:26:14;34.20;38.40
59660;DHT22;45534;52.690;6.268;2022-08-25T16:28:41;34.00;39.20
59660;DHT22;45534;52.690;6.268;2022-08-25T16:31:10;33.80;38.90
59660;DHT22;45534;52.690;6.268;2022-08-25T16:33:36;33.60;39.60
59660;DHT22;45534;52.690;6.268;2022-08-25T16:36:10;33.30;40.30
59660;DHT22;45534;52.690;6.268;2022-08-25T16:38:37;33.10;41.10
59660;DHT22;45534;52.690;6.268;2022-08-25T16:41:05;32.80;41.10
59660;DHT22;45534;52.690;6.268;2022-08-25T16:43:31;32.70;41.10
59660;DHT22;45534;52.690;6.268;2022-08-25T16:46:02;32.70;40.90
59660;DHT22;45534;52.690;6.268;2022-08-25T16:48:28;32.70;40.70
59660;DHT22;45534;52.690;6.268;2022-08-25T16:50:55;32.50;40.20
59660;DHT22;45534;52.690;6.268;2022-08-25T16:53:21;32.40;40.50
59660;DHT22;45534;52.690;6.268;2022-08-25T16:56:05;32.30;40.70
59660;DHT22;45534;52.690;6.268;2022-08-25T16:58:31;32.20;40.90
59660;DHT22;45534;52.690;6.268;2022-08-25T17:01:08;32.20;40.90
59660;DHT22;45534;52.690;6.268;2022-08-25T17:03:37;32.10;41.30
59660;DHT22;45534;52.690;6.268;2022-08-25T17:06:04;32.00;41.50
59660;DHT22;45534;52.690;6.268;2022-08-25T17:08:29;31.90;41.80
59660;DHT22;45534;52.690;6.268;2022-08-25T17:11:12;31.70;42.40
59660;DHT22;45534;52.690;6.268;2022-08-25T17:13:44;31.60;43.50
59660;DHT22;45534;52.690;6.268;2022-08-25T17:16:10;31.40;43.80
59660;DHT22;45534;52.690;6.268;2022-08-25T17:18:36;31.20;44.40
59660;DHT22;45534;52.690;6.268;2022-08-25T17:21:10;31.10;44.80
59660;DHT22;45534;52.690;6.268;2022-08-25T17:23:37;31.00;45.40
59660;DHT22;45534;52.690;6.268;2022-08-25T17:26:04;30.80;45.70
59660;DHT22;45534;52.690;6.268;2022-08-25T17:28:31;30.70;46.00
59660;DHT22;45534;52.690;6.268;2022-08-25T17:30:57;30.60;46.00
59660;DHT22;45534;52.690;6.268;2022-08-25T17:33:23;30.50;46.10
59660;DHT22;45534;52.690;6.268;2022-08-25T17:35:51;30.40;46.10
59660;DHT22;45534;52.690;6.268;2022-08-25T17:38:19;30.30;45.90
59660;DHT22;45534;52.690;6.268;2022-08-25T17:40:45;30.20;46.60
59660;DHT22;45534;52.690;6.268;2022-08-25T17:43:12;30.10;48.20
59660;DHT22;45534;52.690;6.268;2022-08-25T17:45:39;30.00;48.70
59660;DHT22;45534;52.690;6.268;2022-08-25T17:48:05;29.80;48.80
59660;DHT22;45534;52.690;6.268;2022-08-25T17:50:31;29.70;49.20
59660;DHT22;45534;52.690;6.268;2022-08-25T17:52:58;29.50;49.70